Time;durP1;ratioP1;P1;durP2;ratioP2;P2;SDS_P1;SDS_P2;PMS_P1;PMS_P2;Temp;Humidity;BMP_temperature;BMP_pressure;BME280_temperature;BME280_humidity;BME280_pressure;Samples;Min_cycle;Max_cycle;Signal;HPM_P1;HPM_P2
2022/06/30 00:00:21;;;;;;;19.38;8.55;;;;;20.00;96078.00;;;;8356738;28;20884;-69
2022/06/30 00:04:25;;;;;;;12.32;8.27;;;;;19.90;96078.00;;;;8355872;28;20681;-68
2022/06/30 00:08:28;;;;;;;27.95;9.57;;;;;19.80;96081.00;;;;8355898;28;20673;-70
2022/06/30 00:12:32;;;;;;;17.00;9.30;;;;;19.80;96089.00;;;;8354610;28;20470;-67
2022/06/30 00:16:35;;;;;;;14.60;9.68;;;;;19.70;96087.00;;;;8348312;28;20906;-68
2022/06/30 00:20:40;;;;;;;17.65;10.13;;;;;19.70;96084.00;;;;8356818;28;20286;-69
2022/06/30 00:24:43;;;;;;;12.68;8.13;;;;;19.70;96077.00;;;;8356462;28;20225;-69
2022/06/30 00:28:47;;;;;;;18.10;9.70;;;;;19.60;96074.00;;;;8355681;28;21105;-69
2022/06/30 00:32:50;;;;;;;14.02;9.30;;;;;19.50;96076.00;;;;8352627;28;20642;-68
2022/06/30 00:36:55;;;;;;;15.52;9.98;;;;;19.50;96073.00;;;;8355750;28;20235;-68
2022/06/30 00:40:58;;;;;;;27.17;11.68;;;;;19.40;96066.00;;;;8353923;28;20236;-69
2022/06/30 00:45:01;;;;;;;20.55;10.57;;;;;19.50;96060.00;;;;8354774;28;20724;-69
2022/06/30 00:49:05;;;;;;;25.35;10.70;;;;;19.40;96057.00;;;;8355306;28;20635;-69
2022/06/30 00:53:11;;;;;;;28.90;11.13;;;;;19.40;96042.00;;;;8356024;28;20213;-71
2022/06/30 00:57:15;;;;;;;24.95;11.68;;;;;19.30;96042.00;;;;8353293;28;20347;-70
2022/06/30 01:01:20;;;;;;;19.05;10.52;;;;;19.20;96047.00;;;;8355836;28;20321;-71
2022/06/30 01:05:24;;;;;;;24.77;9.82;;;;;19.20;96044.00;;;;8355692;28;20205;-69
2022/06/30 01:13:50;;;;;;;18.23;10.43;;;;;19.10;96047.00;;;;8353344;28;20199;-69
2022/06/30 01:17:54;;;;;;;23.80;10.35;;;;;19.10;96055.00;;;;8351699;28;20662;-68
2022/06/30 01:22:02;;;;;;;23.50;9.88;;;;;19.10;96059.00;;;;8351544;28;20208;-69
2022/06/30 01:26:05;;;;;;;32.08;12.77;;;;;19.10;96063.00;;;;8350958;28;20629;-69
2022/06/30 01:30:10;;;;;;;24.98;11.60;;;;;19.10;96056.00;;;;8354492;28;20189;-69
2022/06/30 01:34:14;;;;;;;33.58;16.13;;;;;19.20;96053.00;;;;8355072;28;20285;-69
2022/06/30 01:38:19;;;;;;;30.40;15.40;;;;;19.40;96054.00;;;;8346778;28;20196;-69
2022/06/30 01:42:23;;;;;;;28.15;15.20;;;;;19.60;96060.00;;;;8346352;28;20204;-69
2022/06/30 01:46:26;;;;;;;40.95;18.98;;;;;19.70;96061.00;;;;8353279;28;20232;-69
2022/06/30 01:50:31;;;;;;;36.97;18.73;;;;;19.70;96045.00;;;;8352164;28;20205;-70
2022/06/30 01:54:36;;;;;;;38.20;18.63;;;;;19.80;96042.00;;;;8354851;28;20238;-69
2022/06/30 01:58:39;;;;;;;47.65;17.90;;;;;19.90;96053.00;;;;8353424;28;20197;-67
2022/06/30 02:02:42;;;;;;;46.88;20.92;;;;;20.00;96054.00;;;;8352017;28;20236;-70
2022/06/30 02:06:48;;;;;;;48.42;21.70;;;;;20.00;96046.00;;;;8341058;28;20204;-67
2022/06/30 02:10:53;;;;;;;45.78;20.45;;;;;20.10;96045.00;;;;8353711;28;20193;-68
2022/06/30 02:14:59;;;;;;;54.67;22.33;;;;;20.10;96050.00;;;;8351583;28;20324;-69
2022/06/30 02:19:02;;;;;;;49.70;21.23;;;;;20.10;96054.00;;;;8352473;28;20211;-69
2022/06/30 02:23:06;;;;;;;69.75;23.10;;;;;20.20;96064.00;;;;8351036;28;20192;-69
2022/06/30 02:27:11;;;;;;;47.20;21.42;;;;;20.20;96060.00;;;;8349331;28;20632;-69
2022/06/30 02:31:14;;;;;;;77.95;24.23;;;;;20.30;96055.00;;;;8351554;28;20287;-66
2022/06/30 02:35:17;;;;;;;78.65;22.67;;;;;20.40;96056.00;;;;8350684;28;20808;-70
2022/06/30 02:39:21;;;;;;;62.22;23.20;;;;;20.40;96064.00;;;;8352502;28;20276;-68
2022/06/30 02:43:25;;;;;;;83.95;23.27;;;;;20.40;96054.00;;;;8354261;28;20569;-69
2022/06/30 02:47:32;;;;;;;122.05;25.48;;;;;20.40;96053.00;;;;8344948;28;20647;-67
2022/06/30 02:51:35;;;;;;;54.78;21.20;;;;;20.40;96063.00;;;;8350841;28;20232;-73
2022/06/30 02:55:39;;;;;;;64.50;23.40;;;;;20.40;96070.00;;;;8352115;28;20705;-69
2022/06/30 02:59:44;;;;;;;181.18;27.45;;;;;20.50;96069.00;;;;8349865;28;20215;-69
2022/06/30 03:03:47;;;;;;;96.32;25.98;;;;;20.60;96065.00;;;;8362533;22;20239;-68
2022/06/30 03:07:51;;;;;;;97.65;25.52;;;;;20.60;96070.00;;;;8318842;28;20201;-69
2022/06/30 03:11:54;;;;;;;93.57;24.75;;;;;20.60;96072.00;;;;8318528;28;20208;-70
2022/06/30 03:16:01;;;;;;;152.70;28.30;;;;;20.70;96069.00;;;;8317689;28;20232;-70
2022/06/30 03:20:06;;;;;;;128.57;26.88;;;;;20.70;96066.00;;;;8311557;28;20186;-69
2022/06/30 03:24:09;;;;;;;351.08;28.55;;;;;20.70;96063.00;;;;8308526;28;20284;-70
2022/06/30 03:28:13;;;;;;;68.03;22.75;;;;;20.60;96078.00;;;;8319530;28;20281;-71
2022/06/30 03:32:17;;;;;;;72.43;22.92;;;;;20.60;96069.00;;;;8323697;28;20204;-69
2022/06/30 03:36:20;;;;;;;69.63;25.38;;;;;20.60;96070.00;;;;8322590;28;20315;-72
2022/06/30 03:40:24;;;;;;;53.92;24.60;;;;;20.60;96075.00;;;;8316408;28;20193;-68
2022/06/30 03:44:27;;;;;;;50.33;22.58;;;;;20.70;96085.00;;;;8307531;28;20206;-70
2022/06/30 03:48:35;;;;;;;50.53;24.38;;;;;20.70;96077.00;;;;8320624;28;20285;-69
2022/06/30 03:52:38;;;;;;;42.92;23.38;;;;;20.80;96079.00;;;;8302783;28;20667;-71
2022/06/30 03:56:42;;;;;;;47.83;22.92;;;;;20.90;96087.00;;;;8313456;28;20257;-70
2022/06/30 04:00:45;;;;;;;45.35;23.67;;;;;20.80;96087.00;;;;8320246;28;20650;-69
2022/06/30 04:04:49;;;;;;;43.22;22.25;;;;;20.80;96087.00;;;;8325062;28;20678;-71
2022/06/30 04:08:53;;;;;;;32.38;20.25;;;;;20.90;96087.00;;;;8325159;28;20194;-70
2022/06/30 04:12:56;;;;;;;35.47;20.98;;;;;20.90;96094.00;;;;8325315;28;20293;-72
2022/06/30 04:17:00;;;;;;;36.65;19.77;;;;;21.00;96088.00;;;;8326514;28;20221;-69
2022/06/30 04:21:06;;;;;;;38.88;22.08;;;;;21.00;96089.00;;;;8319958;28;20267;-69
2022/06/30 04:25:10;;;;;;;45.15;20.33;;;;;21.10;96092.00;;;;8321331;28;20284;-69
2022/06/30 04:29:14;;;;;;;34.75;20.60;;;;;21.10;96093.00;;;;8317325;28;20289;-70
2022/06/30 04:33:17;;;;;;;33.80;20.45;;;;;21.20;96100.00;;;;8321889;28;20693;-70
2022/06/30 04:37:21;;;;;;;34.15;18.58;;;;;21.30;96105.00;;;;8320736;28;20706;-72
2022/06/30 04:41:25;;;;;;;33.25;19.38;;;;;21.30;96100.00;;;;8323948;28;20281;-70
2022/06/30 04:45:28;;;;;;;36.75;21.02;;;;;21.40;96102.00;;;;8315752;28;20669;-68
2022/06/30 04:49:37;;;;;;;34.63;19.90;;;;;21.40;96103.00;;;;8318780;28;20224;-69
2022/06/30 04:53:42;;;;;;;42.05;21.20;;;;;21.40;96100.00;;;;8315636;28;20707;-70
2022/06/30 04:57:45;;;;;;;34.53;19.75;;;;;21.50;96095.00;;;;8320061;28;20221;-73
2022/06/30 05:01:49;;;;;;;44.13;19.80;;;;;21.60;96107.00;;;;8317661;28;20241;-71
2022/06/30 05:05:53;;;;;;;88.22;20.85;;;;;21.70;96098.00;;;;8321602;28;20205;-70
2022/06/30 05:09:58;;;;;;;40.15;21.15;;;;;21.60;96089.00;;;;8318932;28;20228;-69
2022/06/30 05:14:02;;;;;;;33.53;19.35;;;;;21.80;96098.00;;;;8327187;28;20198;-72
2022/06/30 05:18:05;;;;;;;31.17;18.67;;;;;21.90;96090.00;;;;8320294;28;20312;-72
2022/06/30 05:22:08;;;;;;;31.05;18.90;;;;;22.10;96092.00;;;;8316844;28;20208;-68
2022/06/30 05:26:31;;;;;;;38.50;18.77;;;;;22.30;96094.00;;;;8322028;28;20240;-68
2022/06/30 05:30:34;;;;;;;30.60;18.20;;;;;22.30;96090.00;;;;8321178;28;20635;-71
2022/06/30 05:34:38;;;;;;;28.00;16.80;;;;;22.50;96105.00;;;;8321195;28;20643;-71
2022/06/30 05:38:41;;;;;;;30.52;18.35;;;;;22.60;96105.00;;;;8321112;28;20217;-70
2022/06/30 05:42:46;;;;;;;34.17;18.75;;;;;22.80;96106.00;;;;8322369;28;20796;-69
2022/06/30 05:46:49;;;;;;;26.42;18.67;;;;;22.90;96102.00;;;;8321341;28;20206;-72
2022/06/30 05:50:52;;;;;;;22.20;16.27;;;;;23.00;96099.00;;;;8319200;28;20202;-72
2022/06/30 05:54:56;;;;;;;30.00;17.60;;;;;23.20;96098.00;;;;8320558;28;20839;-69
2022/06/30 05:59:01;;;;;;;29.67;18.02;;;;;23.40;96099.00;;;;8314533;28;20233;-69
2022/06/30 06:03:05;;;;;;;27.95;18.52;;;;;23.70;96105.00;;;;8320667;28;20239;-72
2022/06/30 06:07:08;;;;;;;28.05;18.05;;;;;23.80;96106.00;;;;8321779;28;20210;-70
2022/06/30 06:11:11;;;;;;;25.35;18.13;;;;;23.80;96098.00;;;;8318581;28;20210;-69
2022/06/30 06:15:17;;;;;;;26.00;17.63;;;;;23.90;96102.00;;;;8317610;28;20287;-70
2022/06/30 06:19:21;;;;;;;22.15;16.73;;;;;24.10;96102.00;;;;8320201;28;20316;-71
2022/06/30 06:23:25;;;;;;;21.45;15.80;;;;;24.50;96099.00;;;;8320457;28;20261;-70
2022/06/30 06:27:28;;;;;;;19.00;15.05;;;;;24.80;96108.00;;;;8319071;28;20312;-70
2022/06/30 06:31:33;;;;;;;16.58;13.32;;;;;25.40;96105.00;;;;8319780;28;20197;-69
2022/06/30 06:35:37;;;;;;;19.00;14.85;;;;;26.10;96106.00;;;;8318032;28;20287;-69
2022/06/30 06:39:40;;;;;;;21.63;13.43;;;;;26.30;96111.00;;;;8317728;28;20221;-67
2022/06/30 06:43:43;;;;;;;17.83;13.63;;;;;26.50;96110.00;;;;8320496;28;20650;-73
2022/06/30 06:47:49;;;;;;;17.52;12.88;;;;;27.20;96106.00;;;;8316749;28;20189;-72
2022/06/30 06:51:52;;;;;;;18.23;12.50;;;;;27.90;96112.00;;;;8314330;28;20862;-69
2022/06/30 06:55:55;;;;;;;15.20;11.65;;;;;28.50;96104.00;;;;8316701;28;20212;-69
2022/06/30 06:59:59;;;;;;;16.45;11.30;;;;;29.20;96111.00;;;;8316113;28;20217;-72
2022/06/30 07:04:03;;;;;;;15.02;11.00;;;;;29.50;96108.00;;;;8317430;28;20320;-72
2022/06/30 07:08:07;;;;;;;15.48;11.38;;;;;29.60;96105.00;;;;8317260;28;20276;-71
2022/06/30 07:12:11;;;;;;;16.70;11.63;;;;;29.80;96111.00;;;;8315808;28;20209;-72
2022/06/30 07:16:14;;;;;;;12.23;10.02;;;;;30.10;96103.00;;;;8316709;28;20597;-71
2022/06/30 07:20:19;;;;;;;14.73;11.40;;;;;30.40;96106.00;;;;8314050;28;20201;-71
2022/06/30 07:24:22;;;;;;;13.13;10.43;;;;;30.60;96104.00;;;;8309332;28;20372;-71
2022/06/30 07:28:26;;;;;;;15.57;10.90;;;;;30.80;96108.00;;;;8317032;28;20209;-72
2022/06/30 07:32:50;;;;;;;16.23;11.65;;;;;31.00;96099.00;;;;8316507;28;20202;-71
2022/06/30 07:36:54;;;;;;;17.15;12.07;;;;;31.20;96097.00;;;;8325746;28;20232;-69
2022/06/30 07:40:57;;;;;;;17.33;11.98;;;;;31.20;96090.00;;;;8322522;28;20284;-69
2022/06/30 07:45:01;;;;;;;17.52;11.45;;;;;31.10;96089.00;;;;8322529;28;20206;-70
2022/06/30 07:49:04;;;;;;;15.32;11.15;;;;;31.10;96093.00;;;;8325376;28;20220;-70
2022/06/30 07:53:09;;;;;;;15.13;11.38;;;;;31.40;96096.00;;;;8315760;28;20294;-69
2022/06/30 07:57:12;;;;;;;11.95;10.63;;;;;31.70;96094.00;;;;8324040;28;20682;-70
2022/06/30 08:01:36;;;;;;;11.60;9.93;;;;;31.90;96104.00;;;;8322712;28;20193;-68
2022/06/30 08:05:40;;;;;;;15.57;10.20;;;;;32.40;96092.00;;;;8324821;28;20197;-70
2022/06/30 08:09:44;;;;;;;14.82;10.02;;;;;32.60;96091.00;;;;8324519;28;20205;-75
2022/06/30 08:13:48;;;;;;;12.48;9.15;;;;;32.50;96101.00;;;;8322106;28;20769;-69
2022/06/30 08:17:52;;;;;;;13.02;9.05;;;;;33.20;96105.00;;;;8323325;28;20213;-69
2022/06/30 08:21:55;;;;;;;13.80;10.07;;;;;33.30;96101.00;;;;8322658;28;20207;-69
2022/06/30 08:25:59;;;;;;;12.13;9.20;;;;;33.20;96106.00;;;;8324544;28;20225;-68
2022/06/30 08:30:03;;;;;;;15.60;10.10;;;;;33.20;96098.00;;;;8324872;28;20285;-69
2022/06/30 08:34:07;;;;;;;14.50;9.07;;;;;33.20;96097.00;;;;8321173;28;20206;-70
2022/06/30 08:38:11;;;;;;;12.77;9.35;;;;;33.50;96094.00;;;;8321897;28;20316;-73
2022/06/30 08:42:18;;;;;;;12.73;9.68;;;;;34.00;96085.00;;;;8323221;28;20233;-70
2022/06/30 08:46:24;;;;;;;13.50;9.63;;;;;34.50;96083.00;;;;8322410;28;20284;-70
2022/06/30 08:50:27;;;;;;;10.02;8.73;;;;;34.70;96078.00;;;;8319996;28;20190;-69
2022/06/30 08:54:31;;;;;;;12.32;9.60;;;;;35.10;96084.00;;;;8322098;28;20259;-71
2022/06/30 08:58:36;;;;;;;9.52;8.20;;;;;35.50;96091.00;;;;8311934;28;20647;-69
2022/06/30 09:02:39;;;;;;;11.43;8.70;;;;;35.70;96083.00;;;;8321553;28;20312;-70
2022/06/30 09:06:44;;;;;;;10.80;8.15;;;;;35.90;96086.00;;;;8322354;28;20213;-71
2022/06/30 09:10:48;;;;;;;8.15;6.47;;;;;36.20;96082.00;;;;8323044;28;20190;-72
2022/06/30 09:14:53;;;;;;;8.13;6.65;;;;;36.60;96085.00;;;;8319763;28;20205;-70
2022/06/30 09:18:59;;;;;;;9.68;6.65;;;;;36.90;96078.00;;;;8313660;28;20296;-70
2022/06/30 09:23:02;;;;;;;9.48;6.60;;;;;37.10;96078.00;;;;8318911;28;20284;-67
2022/06/30 09:27:10;;;;;;;12.68;7.70;;;;;37.20;96079.00;;;;8322022;28;20280;-70
2022/06/30 09:31:16;;;;;;;8.25;7.45;;;;;37.40;96080.00;;;;8322968;28;20252;-70
2022/06/30 09:35:20;;;;;;;6.93;6.22;;;;;37.40;96078.00;;;;8321429;28;20197;-70
2022/06/30 09:39:24;;;;;;;8.23;6.10;;;;;37.50;96063.00;;;;8314334;28;20232;-70
2022/06/30 09:43:31;;;;;;;9.15;7.25;;;;;37.40;96075.00;;;;8321880;28;20189;-71
2022/06/30 09:47:37;;;;;;;7.07;6.40;;;;;37.50;96078.00;;;;8313861;28;20215;-72
2022/06/30 09:51:42;;;;;;;7.97;6.22;;;;;38.10;96078.00;;;;8319253;28;20220;-70
2022/06/30 09:55:47;;;;;;;6.85;6.18;;;;;38.30;96073.00;;;;8312618;28;20908;-69
2022/06/30 10:00:00;;;;;;;8.77;5.25;;;;;38.60;96081.00;;;;8320415;28;20228;-70
2022/06/30 10:04:08;;;;;;;8.63;6.38;;;;;38.80;96070.00;;;;8320528;28;20236;-72
2022/06/30 10:08:12;;;;;;;6.10;5.50;;;;;38.90;96068.00;;;;8321543;28;20212;-73
2022/06/30 10:12:16;;;;;;;9.10;5.82;;;;;39.20;96066.00;;;;8319473;28;20699;-71
2022/06/30 10:16:22;;;;;;;6.93;5.28;;;;;39.20;96064.00;;;;8313253;28;20548;-69
2022/06/30 10:20:31;;;;;;;9.18;5.95;;;;;39.50;96053.00;;;;8320902;28;20223;-70
2022/06/30 10:24:35;;;;;;;6.07;5.05;;;;;39.80;96050.00;;;;8312262;28;20208;-71
2022/06/30 10:28:38;;;;;;;5.15;4.40;;;;;39.90;96049.00;;;;8314925;28;20209;-69
2022/06/30 10:32:49;;;;;;;4.95;4.30;;;;;40.10;96044.00;;;;8320537;28;20200;-73
2022/06/30 10:37:01;;;;;;;4.75;4.30;;;;;39.80;96043.00;;;;8320493;28;20190;-70
2022/06/30 10:41:10;;;;;;;5.63;4.05;;;;;39.90;96048.00;;;;8318363;28;20320;-72
2022/06/30 10:45:37;;;;;;;7.15;4.07;;;;;40.40;96045.00;;;;8311839;28;20247;-69
2022/06/30 10:49:58;;;;;;;5.03;4.20;;;;;40.50;96045.00;;;;8310533;28;20617;-69
2022/06/30 10:54:03;;;;;;;5.15;4.30;;;;;40.70;96049.00;;;;8319594;28;20200;-72
2022/06/30 10:58:07;;;;;;;4.93;4.50;;;;;40.90;96060.00;;;;8308624;28;20320;-72
2022/06/30 11:02:25;;;;;;;8.23;4.22;;;;;41.10;96054.00;;;;8314855;28;20261;-70
2022/06/30 11:07:07;;;;;;;7.05;4.20;;;;;40.70;96052.00;;;;8319667;28;20186;-71
2022/06/30 11:11:40;;;;;;;5.85;4.47;;;;;40.40;96049.00;;;;8323565;28;20221;-73
2022/06/30 11:15:56;;;;;;;4.78;4.03;;;;;40.70;96041.00;;;;8312590;28;20247;-74
2022/06/30 11:20:01;;;;;;;5.47;4.07;;;;;40.80;96042.00;;;;8319447;28;20213;-70
2022/06/30 11:24:06;;;;;;;5.70;4.35;;;;;40.80;96034.00;;;;8324735;28;20201;-70
2022/06/30 11:28:13;;;;;;;4.53;4.00;;;;;40.90;96035.00;;;;8311368;28;20615;-71
2022/06/30 11:32:23;;;;;;;7.32;3.35;;;;;41.10;96024.00;;;;8320753;28;20197;-68
2022/06/30 11:36:26;;;;;;;5.35;3.53;;;;;41.20;96031.00;;;;8325810;28;20293;-70
2022/06/30 11:40:32;;;;;;;7.07;4.30;;;;;41.60;96021.00;;;;8325150;28;20806;-72
2022/06/30 11:44:38;;;;;;;4.90;4.20;;;;;41.40;96008.00;;;;8321682;28;21053;-70
2022/06/30 11:48:43;;;;;;;7.20;4.10;;;;;41.10;96002.00;;;;8324129;28;20685;-70
2022/06/30 11:52:46;;;;;;;5.25;3.88;;;;;40.90;96003.00;;;;8322648;28;20356;-72
2022/06/30 11:56:51;;;;;;;6.05;3.50;;;;;41.30;96001.00;;;;8319906;28;20197;-71
2022/06/30 12:00:54;;;;;;;4.25;3.83;;;;;41.40;95994.00;;;;8323826;28;20221;-70
2022/06/30 12:05:01;;;;;;;7.03;3.55;;;;;41.40;96003.00;;;;8319424;28;20240;-69
2022/06/30 12:09:04;;;;;;;4.90;3.40;;;;;41.10;96000.00;;;;8321963;28;20560;-68
2022/06/30 12:13:07;;;;;;;4.70;3.60;;;;;41.20;95999.00;;;;8318827;28;20733;-69
2022/06/30 12:17:12;;;;;;;4.60;3.30;;;;;41.30;95994.00;;;;8323358;28;20194;-73
2022/06/30 12:21:18;;;;;;;4.65;3.80;;;;;41.60;95997.00;;;;8322175;28;20233;-71
2022/06/30 12:25:22;;;;;;;5.40;3.67;;;;;41.70;95994.00;;;;8315732;28;20203;-72
2022/06/30 12:29:26;;;;;;;4.95;3.70;;;;;42.00;95991.00;;;;8316905;28;20225;-69
2022/06/30 12:33:39;;;;;;;5.63;3.40;;;;;42.00;95989.00;;;;8322108;28;20207;-70
2022/06/30 12:37:45;;;;;;;3.92;3.50;;;;;41.60;95984.00;;;;8323693;28;20231;-69
2022/06/30 12:41:48;;;;;;;4.50;3.47;;;;;41.10;95975.00;;;;8323190;28;20229;-70
2022/06/30 12:45:55;;;;;;;4.30;2.88;;;;;41.00;95973.00;;;;8311798;28;20289;-72
2022/06/30 12:50:18;;;;;;;6.32;3.45;;;;;40.60;95982.00;;;;8313544;28;20205;-70
2022/06/30 12:54:26;;;;;;;7.75;3.20;;;;;40.10;95976.00;;;;8321473;28;20205;-71
2022/06/30 12:58:44;;;;;;;5.32;3.00;;;;;39.40;95972.00;;;;8314907;28;20283;-72
2022/06/30 13:02:48;;;;;;;7.15;3.45;;;;;38.70;95975.00;;;;8322524;28;20233;-71
2022/06/30 13:06:52;;;;;;;8.02;3.85;;;;;38.20;95962.00;;;;8320972;28;20228;-69
2022/06/30 13:11:06;;;;;;;4.32;2.83;;;;;38.40;95951.00;;;;8321363;28;20281;-70
2022/06/30 13:15:10;;;;;;;4.05;2.83;;;;;38.70;95954.00;;;;8320530;28;20297;-71
2022/06/30 13:19:13;;;;;;;5.13;3.00;;;;;39.40;95952.00;;;;8312365;28;20236;-71
2022/06/30 13:23:17;;;;;;;5.28;2.88;;;;;40.30;95955.00;;;;8320905;28;20643;-69
2022/06/30 13:27:21;;;;;;;5.13;3.30;;;;;40.50;95955.00;;;;8315949;28;20657;-69
2022/06/30 13:31:24;;;;;;;5.03;3.22;;;;;40.80;95951.00;;;;8319817;28;20205;-70
2022/06/30 13:35:28;;;;;;;6.10;3.17;;;;;41.20;95956.00;;;;8319454;28;20202;-72
2022/06/30 13:39:31;;;;;;;11.50;3.08;;;;;41.60;95949.00;;;;8313033;28;20286;-70
2022/06/30 13:43:36;;;;;;;7.25;2.83;;;;;41.70;95940.00;;;;8319370;28;20212;-70
2022/06/30 13:47:39;;;;;;;9.38;3.20;;;;;41.80;95945.00;;;;8320861;28;20316;-72
2022/06/30 13:51:42;;;;;;;7.57;3.30;;;;;41.70;95938.00;;;;8321563;28;20213;-71
2022/06/30 13:55:46;;;;;;;4.93;3.05;;;;;41.10;95935.00;;;;8313173;28;20240;-71
2022/06/30 13:59:51;;;;;;;3.75;2.75;;;;;40.90;95924.00;;;;8315097;28;20217;-68
2022/06/30 14:03:55;;;;;;;4.35;2.80;;;;;40.70;95933.00;;;;8319301;28;20236;-69
2022/06/30 14:07:58;;;;;;;5.15;3.22;;;;;41.00;95930.00;;;;8320756;28;20819;-72
2022/06/30 14:12:01;;;;;;;5.20;2.85;;;;;41.50;95936.00;;;;8319307;28;20212;-69
2022/06/30 14:16:07;;;;;;;6.43;3.13;;;;;41.70;95936.00;;;;8320977;28;20284;-71
2022/06/30 14:20:11;;;;;;;6.35;3.05;;;;;42.10;95934.00;;;;8320532;28;20252;-73
2022/06/30 14:24:14;;;;;;;5.68;2.75;;;;;42.00;95929.00;;;;8318536;28;20288;-72
2022/06/30 14:28:17;;;;;;;5.00;3.15;;;;;41.90;95929.00;;;;8320995;28;20703;-70
2022/06/30 14:32:22;;;;;;;7.25;2.80;;;;;42.00;95919.00;;;;8313892;28;20229;-73
2022/06/30 14:36:25;;;;;;;3.53;2.97;;;;;42.00;95919.00;;;;8298912;28;20197;-72
2022/06/30 14:40:29;;;;;;;8.02;2.85;;;;;42.00;95915.00;;;;8317479;28;20232;-71
2022/06/30 14:44:34;;;;;;;5.90;3.13;;;;;41.90;95912.00;;;;8311195;28;20631;-71
2022/06/30 14:48:39;;;;;;;5.05;2.70;;;;;42.10;95904.00;;;;8309640;28;20279;-70
2022/06/30 14:53:02;;;;;;;3.92;2.80;;;;;42.30;95891.00;;;;8321099;28;20225;-70
2022/06/30 14:57:06;;;;;;;6.28;2.40;;;;;42.20;95886.00;;;;8321276;28;20225;-71
2022/06/30 15:01:09;;;;;;;6.15;2.50;;;;;42.10;95883.00;;;;8313604;28;20256;-70
2022/06/30 15:05:16;;;;;;;7.50;2.88;;;;;41.40;95874.00;;;;8320009;28;20602;-70
2022/06/30 15:09:19;;;;;;;4.78;2.45;;;;;41.00;95876.00;;;;8317920;28;20301;-69
2022/06/30 15:13:22;;;;;;;4.38;2.30;;;;;41.20;95874.00;;;;8319827;28;20197;-71
2022/06/30 15:17:25;;;;;;;5.95;2.70;;;;;41.30;95876.00;;;;8310631;28;20193;-75
2022/06/30 15:26:05;;;;;;;4.10;2.67;;;;;41.00;95865.00;;;;8180368;28;20230;-71
2022/06/30 15:30:09;;;;;;;3.22;2.50;;;;;41.10;95864.00;;;;8242663;28;20208;-71
2022/06/30 15:34:13;;;;;;;6.88;2.60;;;;;41.00;95867.00;;;;8315262;28;20236;-69
2022/06/30 15:38:17;;;;;;;2.42;2.22;;;;;40.40;95863.00;;;;8316715;28;20293;-70
2022/06/30 15:42:21;;;;;;;5.07;2.38;;;;;39.90;95866.00;;;;8318172;28;20739;-69
2022/06/30 15:46:28;;;;;;;5.72;2.35;;;;;39.40;95859.00;;;;8315072;28;20236;-70
2022/06/30 15:50:34;;;;;;;7.45;2.60;;;;;39.00;95859.00;;;;8315352;28;20868;-70
2022/06/30 15:54:39;;;;;;;6.57;2.92;;;;;38.70;95859.00;;;;8318161;28;20201;-70
2022/06/30 15:58:43;;;;;;;4.38;2.53;;;;;38.60;95867.00;;;;8324353;28;20718;-70
2022/06/30 16:02:46;;;;;;;5.32;2.38;;;;;38.40;95871.00;;;;8324230;28;20593;-69
2022/06/30 16:06:50;;;;;;;3.88;3.15;;;;;38.10;95881.00;;;;8322292;28;20292;-69
2022/06/30 16:10:55;;;;;;;6.50;2.90;;;;;37.90;95884.00;;;;8323760;28;20204;-70
2022/06/30 16:15:08;;;;;;;6.40;2.70;;;;;37.60;95894.00;;;;8316086;28;20194;-70
2022/06/30 16:19:11;;;;;;;4.13;2.60;;;;;37.30;95882.00;;;;8318962;28;20205;-71
2022/06/30 16:23:14;;;;;;;4.80;2.70;;;;;37.20;95882.00;;;;8317355;28;20217;-72
2022/06/30 16:27:19;;;;;;;5.57;2.83;;;;;37.30;95890.00;;;;8320568;28;20627;-70
2022/06/30 16:31:22;;;;;;;4.63;2.92;;;;;37.30;95901.00;;;;8319570;28;20209;-72
2022/06/30 16:35:26;;;;;;;3.67;2.60;;;;;37.20;95906.00;;;;8317015;28;20781;-74
2022/06/30 16:39:29;;;;;;;5.95;2.58;;;;;36.80;95907.00;;;;8322690;28;20216;-72
2022/06/30 16:43:36;;;;;;;4.97;2.88;;;;;36.50;95901.00;;;;8318532;28;20252;-71
2022/06/30 16:47:40;;;;;;;8.38;2.72;;;;;36.20;95896.00;;;;8315803;28;20205;-73
2022/06/30 16:51:43;;;;;;;5.90;2.50;;;;;36.10;95897.00;;;;8317479;28;20685;-71
2022/06/30 16:55:47;;;;;;;4.95;2.90;;;;;35.90;95894.00;;;;8318479;28;20205;-71
2022/06/30 16:59:53;;;;;;;2.80;2.50;;;;;35.70;95882.00;;;;8316486;28;20288;-70
2022/06/30 17:03:57;;;;;;;4.25;3.05;;;;;35.60;95879.00;;;;8314831;28;20229;-71
2022/06/30 17:08:01;;;;;;;6.28;2.70;;;;;35.40;95866.00;;;;8321248;28;20221;-71
2022/06/30 17:12:05;;;;;;;3.78;2.83;;;;;35.10;95859.00;;;;8315735;28;20244;-71
2022/06/30 17:16:10;;;;;;;5.78;3.05;;;;;34.90;95859.00;;;;8318061;28;20316;-70
2022/06/30 17:20:14;;;;;;;8.65;3.20;;;;;34.70;95868.00;;;;8318052;28;20646;-70
2022/06/30 17:24:21;;;;;;;4.80;2.70;;;;;34.50;95869.00;;;;8317405;28;20201;-71
2022/06/30 17:28:25;;;;;;;6.43;3.00;;;;;34.40;95870.00;;;;8313913;28;20193;-71
2022/06/30 17:32:30;;;;;;;4.85;3.38;;;;;34.30;95862.00;;;;8308188;28;20251;-72
2022/06/30 17:36:33;;;;;;;5.20;2.75;;;;;34.20;95849.00;;;;8312480;28;20332;-72
2022/06/30 17:40:37;;;;;;;3.40;3.10;;;;;34.10;95840.00;;;;8311023;28;20229;-72
2022/06/30 17:44:40;;;;;;;5.00;2.90;;;;;34.00;95832.00;;;;8318902;28;20640;-71
2022/06/30 17:48:45;;;;;;;5.65;3.03;;;;;33.90;95829.00;;;;8312264;28;20227;-72
2022/06/30 17:52:48;;;;;;;7.57;2.67;;;;;33.90;95825.00;;;;8315375;28;20296;-71
2022/06/30 17:56:52;;;;;;;3.72;2.53;;;;;33.70;95819.00;;;;8316454;28;20691;-72
2022/06/30 18:00:55;;;;;;;7.43;3.03;;;;;33.50;95830.00;;;;8315076;28;20225;-72
2022/06/30 18:05:02;;;;;;;5.90;3.63;;;;;33.30;95838.00;;;;8310339;28;20766;-71
2022/06/30 18:13:27;;;;;;;6.82;3.15;;;;;32.60;95829.00;;;;8309786;28;20575;-73
2022/06/30 18:17:30;;;;;;;10.07;3.10;;;;;32.30;95840.00;;;;8303141;28;20730;-72
2022/06/30 18:21:36;;;;;;;8.73;3.50;;;;;31.80;95856.00;;;;8311248;28;20229;-72
2022/06/30 18:25:40;;;;;;;4.38;2.95;;;;;31.20;95875.00;;;;8308379;28;20902;-70
2022/06/30 18:29:43;;;;;;;5.60;3.25;;;;;30.70;95894.00;;;;8309084;28;20197;-72
2022/06/30 18:33:46;;;;;;;5.07;3.10;;;;;30.30;95901.00;;;;8316291;28;20201;-73
2022/06/30 18:37:52;;;;;;;3.33;2.85;;;;;29.80;95916.00;;;;8316452;28;20206;-67
2022/06/30 18:41:55;;;;;;;7.32;3.60;;;;;29.50;95922.00;;;;8314674;28;20305;-72
2022/06/30 18:45:59;;;;;;;3.47;3.08;;;;;29.10;95936.00;;;;8303636;28;20214;-71
2022/06/30 18:50:02;;;;;;;5.22;3.38;;;;;28.80;95938.00;;;;8315479;28;20193;-71
2022/06/30 18:54:07;;;;;;;5.22;3.25;;;;;28.50;95934.00;;;;8312833;28;20284;-72
2022/06/30 18:58:10;;;;;;;9.00;4.13;;;;;27.90;95923.00;;;;8316562;28;20288;-72
2022/06/30 19:02:14;;;;;;;7.88;3.50;;;;;27.40;95926.00;;;;8312550;28;20229;-71
2022/06/30 19:06:17;;;;;;;3.78;3.47;;;;;27.10;95936.00;;;;8308216;28;20644;-73
2022/06/30 19:10:22;;;;;;;9.52;3.97;;;;;26.70;95935.00;;;;8316268;28;20293;-74
2022/06/30 19:14:25;;;;;;;6.68;4.03;;;;;26.30;95937.00;;;;8317566;28;20205;-74
2022/06/30 19:18:28;;;;;;;7.00;4.07;;;;;26.10;95947.00;;;;8317935;28;20205;-75
2022/06/30 19:22:32;;;;;;;6.25;4.25;;;;;25.80;95953.00;;;;8313966;28;20769;-72
2022/06/30 19:26:57;;;;;;;14.18;4.40;;;;;25.50;95943.00;;;;8312917;28;20277;-73
2022/06/30 19:31:03;;;;;;;8.10;4.65;;;;;25.20;95955.00;;;;8320870;28;20202;-75
2022/06/30 19:35:08;;;;;;;9.07;4.18;;;;;25.00;95953.00;;;;8322478;28;20219;-71
2022/06/30 19:39:11;;;;;;;11.88;4.80;;;;;24.90;95972.00;;;;8323127;28;20229;-71
2022/06/30 19:43:16;;;;;;;6.32;4.57;;;;;24.80;95975.00;;;;8321705;28;20774;-77
2022/06/30 19:47:19;;;;;;;5.18;4.50;;;;;24.60;95978.00;;;;8318489;28;20273;-73
2022/06/30 19:51:23;;;;;;;5.45;4.05;;;;;24.40;95980.00;;;;8316455;28;20204;-73
2022/06/30 19:55:26;;;;;;;6.00;3.85;;;;;24.10;95984.00;;;;8319297;28;20708;-72
2022/06/30 19:59:31;;;;;;;6.25;5.10;;;;;23.90;95987.00;;;;8320548;28;20201;-75
2022/06/30 20:12:31;;;;;;;9.27;5.22;;;;;23.60;95963.00;;;;8185544;28;20231;-71
2022/06/30 20:16:37;;;;;;;9.10;5.28;;;;;23.40;95962.00;;;;8244791;28;20201;-75
2022/06/30 20:20:40;;;;;;;8.88;4.85;;;;;23.30;95961.00;;;;8318878;28;20200;-73
2022/06/30 20:24:43;;;;;;;6.72;5.20;;;;;23.20;95970.00;;;;8327763;28;20743;-73
2022/06/30 20:28:46;;;;;;;5.65;5.03;;;;;23.20;95961.00;;;;8316156;28;20202;-73
2022/06/30 20:32:58;;;;;;;10.95;5.15;;;;;23.10;95945.00;;;;8320664;28;20190;-72